createdAt,value
2023-03-26T00:00:16.737Z,12
2023-03-26T00:02:46.829Z,12
2023-03-26T00:05:17.946Z,12
2023-03-26T00:07:48.738Z,12
2023-03-26T00:10:19.265Z,11
2023-03-26T00:12:49.432Z,12
2023-03-26T00:15:19.974Z,8
2023-03-26T00:17:51.791Z,8
2023-03-26T00:20:21.193Z,9
2023-03-26T00:22:51.394Z,8
2023-03-26T00:25:21.858Z,8
2023-03-26T00:27:52.112Z,8
2023-03-26T00:30:24.331Z,8
2023-03-26T00:32:53.988Z,8
2023-03-26T00:35:23.679Z,12
2023-03-26T00:37:55.276Z,8
2023-03-26T00:40:25.547Z,8
2023-03-26T00:42:56.570Z,8
2023-03-26T00:45:27.056Z,8
2023-03-26T00:47:57.371Z,8
2023-03-26T00:50:27.528Z,8
2023-03-26T00:52:57.905Z,8
2023-03-26T00:55:29.359Z,8
2023-03-26T00:58:01.557Z,8
2023-03-26T01:00:32.008Z,8
2023-03-26T01:03:03.548Z,9
2023-03-26T01:05:33.567Z,8
2023-03-26T01:08:04.043Z,8
2023-03-26T01:10:34.469Z,8
2023-03-26T01:13:04.689Z,8
2023-03-26T01:15:34.998Z,8
2023-03-26T01:18:05.959Z,8
2023-03-26T01:20:36.525Z,8
2023-03-26T01:23:06.812Z,8
2023-03-26T01:25:37.383Z,9
2023-03-26T01:28:07.148Z,10
2023-03-26T01:30:37.333Z,8
2023-03-26T01:33:07.888Z,8
2023-03-26T01:35:38.252Z,8
2023-03-26T01:38:09.031Z,8
2023-03-26T01:40:39.038Z,8
2023-03-26T01:43:09.441Z,8
2023-03-26T01:45:40.244Z,8
2023-03-26T01:48:10.596Z,8
2023-03-26T01:50:41.352Z,8
2023-03-26T01:53:12.203Z,8
2023-03-26T01:55:42.515Z,11
2023-03-26T01:58:13.244Z,10
2023-03-26T02:00:43.199Z,8
2023-03-26T02:03:13.955Z,4
2023-03-26T02:05:44.410Z,8
2023-03-26T02:08:14.659Z,8
2023-03-26T02:10:45.215Z,8
2023-03-26T02:13:15.623Z,8
2023-03-26T02:15:46.279Z,8
2023-03-26T02:18:16.957Z,8
2023-03-26T02:20:47.668Z,8
2023-03-26T02:23:17.798Z,8
2023-03-26T02:25:50.342Z,7
2023-03-26T02:28:21.269Z,8
2023-03-26T02:30:51.571Z,8
2023-03-26T02:33:21.863Z,8
2023-03-26T02:35:54.958Z,8
2023-03-26T02:38:25.261Z,8
2023-03-26T02:40:55.700Z,8
2023-03-26T02:43:25.826Z,8
2023-03-26T02:45:56.627Z,8
2023-03-26T02:48:27.528Z,8
2023-03-26T02:50:57.879Z,8
2023-03-26T02:53:33.697Z,8
2023-03-26T02:56:04.346Z,8
2023-03-26T02:58:35.330Z,8
2023-03-26T03:01:05.498Z,8
2023-03-26T03:03:35.775Z,8
2023-03-26T03:06:06.465Z,12
2023-03-26T03:08:36.647Z,8
2023-03-26T03:11:06.861Z,8
2023-03-26T03:13:37.365Z,12
2023-03-26T03:16:07.868Z,8
2023-03-26T03:18:40.005Z,8
2023-03-26T03:21:11.508Z,12
2023-03-26T03:23:42.003Z,12
2023-03-26T03:26:18.483Z,8
2023-03-26T03:28:49.078Z,9
2023-03-26T03:31:19.570Z,9
2023-03-26T03:33:49.940Z,12
2023-03-26T03:36:20.699Z,10
2023-03-26T03:38:51.044Z,12
2023-03-26T03:41:21.528Z,12
2023-03-26T03:43:52.006Z,8
2023-03-26T03:46:22.714Z,9
2023-03-26T03:48:54.148Z,12
2023-03-26T03:51:24.786Z,8
2023-03-26T03:53:55.331Z,12
2023-03-26T03:56:25.591Z,11
2023-03-26T03:58:55.585Z,12
2023-03-26T04:01:26.642Z,12
2023-03-26T04:03:57.211Z,8
2023-03-26T04:06:27.926Z,12
2023-03-26T04:08:58.464Z,12
2023-03-26T04:11:29.449Z,12
2023-03-26T04:14:00.366Z,12
2023-03-26T04:16:29.636Z,12
2023-03-26T04:19:00.107Z,12
2023-03-26T04:21:32.689Z,17
2023-03-26T04:24:03.169Z,12
2023-03-26T04:26:33.842Z,12
2023-03-26T04:29:04.183Z,8
2023-03-26T04:31:34.394Z,8
2023-03-26T04:34:03.600Z,10
2023-03-26T04:36:33.962Z,12
2023-03-26T04:39:04.286Z,11
2023-03-26T04:41:35.064Z,15
2023-03-26T04:44:05.809Z,19
2023-03-26T04:46:36.197Z,16
2023-03-26T04:49:06.840Z,16
2023-03-26T04:51:41.213Z,16
2023-03-26T04:54:12.189Z,16
2023-03-26T04:56:43.154Z,16
2023-03-26T04:59:13.642Z,20
2023-03-26T05:01:46.212Z,20
2023-03-26T05:04:16.953Z,24
2023-03-26T05:06:47.039Z,24
2023-03-26T05:09:17.383Z,28
2023-03-26T05:11:48.042Z,24
2023-03-26T05:14:18.225Z,32
2023-03-26T05:16:49.048Z,28
2023-03-26T05:19:21.027Z,24
2023-03-26T05:21:51.138Z,23
2023-03-26T05:24:21.675Z,20
2023-03-26T05:26:52.629Z,16
2023-03-26T05:29:22.828Z,16
2023-03-26T05:31:52.966Z,16
2023-03-26T05:34:23.050Z,16
2023-03-26T05:36:53.312Z,16
2023-03-26T05:39:24.300Z,19
2023-03-26T05:41:54.538Z,20
2023-03-26T05:44:25.174Z,20
2023-03-26T05:46:55.849Z,16
2023-03-26T05:49:26.379Z,16
2023-03-26T05:51:58.103Z,16
2023-03-26T05:54:28.506Z,17
2023-03-26T05:57:00.434Z,16
2023-03-26T05:59:31.003Z,16
2023-03-26T06:02:02.320Z,16
2023-03-26T06:04:32.677Z,16
2023-03-26T06:07:04.128Z,16
2023-03-26T06:09:34.331Z,20
2023-03-26T06:12:04.616Z,16
2023-03-26T06:14:35.129Z,16
2023-03-26T06:17:05.333Z,20
2023-03-26T06:19:35.757Z,16
2023-03-26T06:22:06.383Z,19
2023-03-26T06:24:36.468Z,16
2023-03-26T06:27:08.344Z,16
2023-03-26T06:29:38.543Z,16
2023-03-26T06:32:18.802Z,16
2023-03-26T06:34:38.796Z,9
2023-03-26T06:37:09.345Z,16
2023-03-26T06:39:39.317Z,12
2023-03-26T06:42:09.641Z,18
2023-03-26T06:44:40.460Z,12
2023-03-26T06:47:11.117Z,8
2023-03-26T06:49:42.339Z,16
2023-03-26T06:52:12.219Z,16
2023-03-26T06:54:42.285Z,16
2023-03-26T06:57:13.016Z,10
2023-03-26T06:59:42.991Z,8
2023-03-26T07:02:13.442Z,4
2023-03-26T07:04:43.752Z,4
2023-03-26T07:07:14.042Z,8
2023-03-26T07:09:44.800Z,4
2023-03-26T07:12:15.424Z,4
2023-03-26T07:14:45.478Z,4
2023-03-26T07:17:15.624Z,4
2023-03-26T07:19:45.726Z,7
2023-03-26T07:22:17.905Z,4
2023-03-26T07:24:49.207Z,0
2023-03-26T07:27:19.410Z,4
2023-03-26T07:29:49.939Z,4
2023-03-26T07:32:20.427Z,4
2023-03-26T07:34:51.948Z,4
2023-03-26T07:37:22.276Z,8
2023-03-26T07:39:52.466Z,4
2023-03-26T07:42:22.764Z,4
2023-03-26T07:44:53.394Z,4
2023-03-26T07:47:23.861Z,12
2023-03-26T07:49:54.527Z,10
2023-03-26T07:52:24.921Z,4
2023-03-26T07:54:56.793Z,8
2023-03-26T07:57:26.998Z,4
2023-03-26T07:59:57.261Z,4
2023-03-26T08:02:28.620Z,4
2023-03-26T08:04:59.938Z,4
2023-03-26T08:07:31.586Z,4
2023-03-26T08:10:03.002Z,4
2023-03-26T08:12:33.908Z,8
2023-03-26T08:15:04.510Z,8
2023-03-26T08:17:37.077Z,4
2023-03-26T08:20:09.216Z,8
2023-03-26T08:22:39.837Z,8
2023-03-26T08:25:10.521Z,4
2023-03-26T08:27:41.060Z,4
2023-03-26T08:30:11.890Z,4
2023-03-26T08:32:42.136Z,4
2023-03-26T08:35:12.801Z,4
2023-03-26T08:37:43.019Z,0
2023-03-26T08:40:14.076Z,4
2023-03-26T08:42:44.615Z,0
2023-03-26T08:45:14.907Z,4
2023-03-26T08:47:45.439Z,4
2023-03-26T08:50:16.604Z,4
2023-03-26T08:52:49.546Z,8
2023-03-26T08:55:20.083Z,8
2023-03-26T08:57:50.101Z,4
2023-03-26T09:00:21.582Z,8
2023-03-26T09:02:52.168Z,5
2023-03-26T09:05:22.289Z,4
2023-03-26T09:07:52.589Z,4
2023-03-26T09:10:22.866Z,0
2023-03-26T09:12:52.938Z,0
2023-03-26T09:15:23.793Z,4
2023-03-26T09:17:55.438Z,4
2023-03-26T09:20:24.564Z,0
2023-03-26T09:22:54.804Z,0
2023-03-26T09:25:24.758Z,0
2023-03-26T09:27:55.375Z,0
2023-03-26T09:30:24.255Z,4
2023-03-26T09:32:54.320Z,0
2023-03-26T09:35:25.102Z,4
2023-03-26T09:37:56.534Z,0
2023-03-26T09:40:26.484Z,4
2023-03-26T09:42:57.382Z,0
2023-03-26T09:45:28.118Z,4
2023-03-26T09:47:58.934Z,4
2023-03-26T09:50:29.640Z,4
2023-03-26T09:52:59.820Z,0
2023-03-26T09:55:30.483Z,0
2023-03-26T09:58:01.505Z,0
2023-03-26T10:00:31.950Z,0
2023-03-26T10:03:02.428Z,0
2023-03-26T10:05:32.706Z,0
2023-03-26T10:08:03.400Z,0
2023-03-26T10:10:34.503Z,0
2023-03-26T10:13:13.831Z,4
2023-03-26T10:15:35.491Z,15
2023-03-26T10:18:26.837Z,14
2023-03-26T10:20:36.937Z,0
2023-03-26T10:23:08.301Z,0
2023-03-26T10:25:37.347Z,4
2023-03-26T10:28:07.961Z,0
2023-03-26T10:30:38.713Z,0
2023-03-26T10:33:08.912Z,0
2023-03-26T10:35:39.538Z,4
2023-03-26T10:38:09.556Z,4
2023-03-26T10:40:40.112Z,4
2023-03-26T10:43:12.396Z,0
2023-03-26T10:45:40.964Z,0
2023-03-26T10:48:15.532Z,0
2023-03-26T10:50:45.756Z,0
2023-03-26T10:53:16.250Z,0
2023-03-26T10:55:46.599Z,0
2023-03-26T10:58:16.816Z,0
2023-03-26T11:00:47.325Z,0
2023-03-26T11:03:17.884Z,0
2023-03-26T11:05:48.219Z,3
2023-03-26T11:08:18.711Z,4
2023-03-26T11:10:49.195Z,0
2023-03-26T11:13:19.332Z,0
2023-03-26T11:15:49.368Z,4
2023-03-26T11:18:19.466Z,1
2023-03-26T11:20:51.630Z,0
2023-03-26T11:23:22.429Z,0
2023-03-26T11:25:52.626Z,4
2023-03-26T11:28:23.007Z,0
2023-03-26T11:30:53.566Z,0
2023-03-26T11:33:24.232Z,0
2023-03-26T11:35:55.409Z,4
2023-03-26T11:38:26.671Z,0
2023-03-26T11:40:57.163Z,0
2023-03-26T11:43:27.559Z,0
2023-03-26T11:45:58.259Z,0
2023-03-26T11:48:28.301Z,0
2023-03-26T11:50:58.977Z,0
2023-03-26T11:53:29.855Z,0
2023-03-26T11:56:01.808Z,3
2023-03-26T11:58:32.151Z,4
2023-03-26T12:01:02.134Z,4
2023-03-26T12:03:30.861Z,0
2023-03-26T12:06:01.207Z,0
2023-03-26T12:08:32.057Z,0
2023-03-26T12:11:02.653Z,1
2023-03-26T12:13:32.890Z,0
2023-03-26T12:16:03.361Z,0
2023-03-26T12:21:05.896Z,0
2023-03-26T12:23:36.277Z,0
2023-03-26T12:26:07.124Z,0
2023-03-26T12:28:37.946Z,0
2023-03-26T12:31:08.701Z,8
2023-03-26T12:33:39.660Z,8
2023-03-26T12:36:10.231Z,8
2023-03-26T12:38:40.951Z,0
2023-03-26T12:42:25.641Z,0
2023-03-26T12:44:45.396Z,0
2023-03-26T12:46:20.758Z,20
2023-03-26T12:48:45.063Z,4
2023-03-26T12:51:19.505Z,0
2023-03-26T12:53:50.460Z,4
2023-03-26T12:56:21.375Z,8
2023-03-26T12:58:51.772Z,16
2023-03-26T13:01:22.791Z,5
2023-03-26T13:03:53.479Z,0
2023-03-26T13:06:24.024Z,0
2023-03-26T13:08:55.699Z,0
2023-03-26T13:11:26.640Z,0
2023-03-26T13:13:57.884Z,0
2023-03-26T13:16:28.630Z,0
2023-03-26T13:18:58.915Z,0
2023-03-26T13:21:29.153Z,0
2023-03-26T13:23:59.213Z,0
2023-03-26T13:26:29.578Z,0
2023-03-26T13:29:00.087Z,0
2023-03-26T13:31:30.795Z,0
2023-03-26T13:34:01.491Z,12
2023-03-26T13:36:32.549Z,8
2023-03-26T13:39:03.656Z,0
2023-03-26T13:41:34.450Z,0
2023-03-26T13:44:05.016Z,0
2023-03-26T13:46:35.242Z,0
2023-03-26T13:49:05.510Z,12
2023-03-26T13:51:35.742Z,4
2023-03-26T13:54:06.131Z,12
2023-03-26T13:56:36.255Z,8
2023-03-26T13:59:07.103Z,19
2023-03-26T14:01:37.511Z,20
2023-03-26T14:04:08.754Z,19
2023-03-26T14:06:39.044Z,12
2023-03-26T14:09:09.618Z,0
2023-03-26T14:11:40.256Z,4
2023-03-26T14:14:09.009Z,4
2023-03-26T14:16:39.982Z,0
2023-03-26T14:19:10.368Z,16
2023-03-26T14:21:40.953Z,4
2023-03-26T14:24:11.593Z,0
2023-03-26T14:26:41.976Z,8
2023-03-26T14:29:13.016Z,0
2023-03-26T14:31:43.944Z,0
2023-03-26T14:34:14.878Z,0
2023-03-26T14:36:45.375Z,8
2023-03-26T14:39:16.274Z,4
2023-03-26T14:41:46.811Z,26
2023-03-26T14:44:17.813Z,8
2023-03-26T14:46:48.182Z,7
2023-03-26T14:49:18.169Z,0
2023-03-26T14:51:49.496Z,0
2023-03-26T14:54:20.407Z,4
2023-03-26T14:56:50.997Z,4
2023-03-26T14:59:21.294Z,8
2023-03-26T15:01:52.152Z,16
2023-03-26T15:04:22.865Z,4
2023-03-26T15:06:53.238Z,0
2023-03-26T15:09:23.649Z,37
2023-03-26T15:11:54.168Z,24
2023-03-26T15:14:24.786Z,8
2023-03-26T15:16:55.277Z,28
2023-03-26T15:19:26.110Z,8
2023-03-26T15:21:56.577Z,20
2023-03-26T15:24:27.641Z,8
2023-03-26T15:26:58.179Z,50
2023-03-26T15:29:28.525Z,0
2023-03-26T15:31:58.732Z,12
2023-03-26T15:34:29.085Z,4
2023-03-26T15:36:59.327Z,4
2023-03-26T15:39:29.539Z,0
2023-03-26T15:42:00.145Z,0
2023-03-26T15:44:31.658Z,0
2023-03-26T15:47:01.026Z,0
2023-03-26T15:49:31.998Z,0
2023-03-26T15:52:02.513Z,0
2023-03-26T15:54:33.232Z,0
2023-03-26T15:57:03.514Z,0
2023-03-26T15:59:33.514Z,0
2023-03-26T16:02:03.794Z,0
2023-03-26T16:04:34.484Z,1
2023-03-26T16:07:05.107Z,3
2023-03-26T16:09:35.377Z,4
2023-03-26T16:12:05.774Z,12
2023-03-26T16:14:36.845Z,8
2023-03-26T16:17:07.297Z,8
2023-03-26T16:19:37.889Z,4
2023-03-26T16:22:08.145Z,8
2023-03-26T16:24:38.804Z,8
2023-03-26T16:27:09.551Z,8
2023-03-26T16:29:40.131Z,8
2023-03-26T16:32:08.836Z,11
2023-03-26T16:34:38.848Z,8
2023-03-26T16:37:09.118Z,4
2023-03-26T16:39:39.186Z,18
2023-03-26T16:42:10.153Z,8
2023-03-26T16:44:40.429Z,4
2023-03-26T16:47:11.001Z,4
2023-03-26T16:49:41.039Z,8
2023-03-26T16:52:11.076Z,8
2023-03-26T16:54:41.111Z,8
2023-03-26T16:57:11.827Z,16
2023-03-26T16:59:41.962Z,16
2023-03-26T17:02:12.135Z,9
2023-03-26T17:04:42.205Z,4
2023-03-26T17:07:12.301Z,4
2023-03-26T17:09:42.827Z,8
2023-03-26T17:12:14.878Z,4
2023-03-26T17:14:45.695Z,4
2023-03-26T17:17:16.261Z,7
2023-03-26T17:19:46.315Z,10
2023-03-26T17:22:16.755Z,5
2023-03-26T17:24:46.916Z,9
2023-03-26T17:27:17.993Z,4
2023-03-26T17:29:47.142Z,8
2023-03-26T17:32:17.342Z,8
2023-03-26T17:34:47.883Z,16
2023-03-26T17:37:18.710Z,20
2023-03-26T17:39:48.833Z,16
2023-03-26T17:42:19.167Z,4
2023-03-26T17:44:49.487Z,12
2023-03-26T17:47:20.174Z,8
2023-03-26T17:49:50.350Z,8
2023-03-26T17:52:20.930Z,4
2023-03-26T17:54:51.188Z,5
2023-03-26T17:57:21.324Z,5
2023-03-26T17:59:51.463Z,8
2023-03-26T18:02:22.024Z,4
2023-03-26T18:04:52.057Z,4
2023-03-26T18:07:22.569Z,8
2023-03-26T18:09:53.043Z,20
2023-03-26T18:12:23.769Z,6
2023-03-26T18:14:54.004Z,16
2023-03-26T18:17:24.876Z,8
2023-03-26T18:19:53.718Z,4
2023-03-26T18:22:24.239Z,17
2023-03-26T18:24:54.342Z,4
2023-03-26T18:27:24.588Z,4
2023-03-26T18:29:54.564Z,4
2023-03-26T18:32:24.897Z,4
2023-03-26T18:34:55.165Z,12
2023-03-26T18:37:25.533Z,4
2023-03-26T18:39:55.999Z,4
2023-03-26T18:42:26.802Z,12
2023-03-26T18:44:59.666Z,8
2023-03-26T18:47:27.865Z,8
2023-03-26T18:49:58.206Z,8
2023-03-26T18:52:28.637Z,17
2023-03-26T18:54:58.855Z,9
2023-03-26T18:57:29.251Z,20
2023-03-26T18:59:59.556Z,20
2023-03-26T19:02:29.915Z,21
2023-03-26T19:05:00.049Z,24
2023-03-26T19:07:30.117Z,20
2023-03-26T19:10:00.173Z,17
2023-03-26T19:12:30.360Z,20
2023-03-26T19:15:01.080Z,20
2023-03-26T19:17:31.610Z,20
2023-03-26T19:20:01.565Z,12
2023-03-26T19:22:31.698Z,11
2023-03-26T19:25:02.865Z,12
2023-03-26T19:27:32.865Z,16
2023-03-26T19:30:03.182Z,19
2023-03-26T19:32:33.273Z,20
2023-03-26T19:35:03.439Z,12
2023-03-26T19:37:33.832Z,16
2023-03-26T19:40:04.089Z,18
2023-03-26T19:42:43.520Z,20
2023-03-26T19:45:03.212Z,32
2023-03-26T19:47:46.325Z,20
2023-03-26T19:50:03.988Z,13
2023-03-26T19:52:34.332Z,16
2023-03-26T19:55:04.850Z,12
2023-03-26T19:57:35.627Z,12
2023-03-26T20:00:06.267Z,4
2023-03-26T20:02:37.363Z,8
2023-03-26T20:05:07.743Z,8
2023-03-26T20:07:38.265Z,8
2023-03-26T20:10:08.641Z,8
2023-03-26T20:12:37.374Z,8
2023-03-26T20:15:07.463Z,7
2023-03-26T20:17:37.643Z,5
2023-03-26T20:20:06.374Z,8
2023-03-26T20:22:36.333Z,8
2023-03-26T20:25:06.396Z,8
2023-03-26T20:27:36.422Z,4
2023-03-26T20:30:07.227Z,8
2023-03-26T20:32:36.883Z,8
2023-03-26T20:35:07.306Z,8
2023-03-26T20:37:37.986Z,8
2023-03-26T20:40:07.908Z,8
2023-03-26T20:42:38.238Z,20
2023-03-26T20:45:08.729Z,16
2023-03-26T20:47:39.314Z,8
2023-03-26T20:50:09.437Z,7
2023-03-26T20:52:39.626Z,8
2023-03-26T20:55:10.036Z,5
2023-03-26T20:57:39.855Z,8
2023-03-26T21:00:10.239Z,8
2023-03-26T21:02:41.983Z,8
2023-03-26T21:05:10.854Z,5
2023-03-26T21:07:41.023Z,5
2023-03-26T21:10:11.250Z,7
2023-03-26T21:12:44.044Z,8
2023-03-26T21:15:20.811Z,7
2023-03-26T21:17:42.519Z,8
2023-03-26T21:20:12.382Z,6
2023-03-26T21:22:41.112Z,11
2023-03-26T21:25:13.218Z,8
2023-03-26T21:27:43.820Z,8
2023-03-26T21:30:12.549Z,9
2023-03-26T21:32:43.226Z,12
2023-03-26T21:35:13.541Z,8
2023-03-26T21:37:43.718Z,8
2023-03-26T21:40:15.422Z,12
2023-03-26T21:42:46.650Z,8
2023-03-26T21:45:17.085Z,12
2023-03-26T21:47:47.398Z,16
2023-03-26T21:50:18.324Z,12
2023-03-26T21:52:48.617Z,12
2023-03-26T21:55:20.825Z,18
2023-03-26T21:57:51.474Z,12
2023-03-26T22:00:23.927Z,10
2023-03-26T22:02:52.147Z,22
2023-03-26T22:05:22.308Z,20
2023-03-26T22:07:52.615Z,28
2023-03-26T22:10:22.709Z,20
2023-03-26T22:12:53.023Z,12
2023-03-26T22:15:21.547Z,12
2023-03-26T22:17:52.123Z,8
2023-03-26T22:20:22.400Z,8
2023-03-26T22:22:52.395Z,9
2023-03-26T22:25:22.629Z,8
2023-03-26T22:27:54.006Z,8
2023-03-26T22:30:24.732Z,16
2023-03-26T22:32:53.814Z,8
2023-03-26T22:35:24.399Z,9
2023-03-26T22:38:00.336Z,8
2023-03-26T22:40:23.989Z,7
2023-03-26T22:42:55.304Z,8
2023-03-26T22:45:25.808Z,4
2023-03-26T22:48:03.341Z,8
2023-03-26T22:50:25.632Z,8
2023-03-26T22:52:56.264Z,8
2023-03-26T22:55:28.187Z,8
2023-03-26T22:57:56.930Z,8
2023-03-26T23:00:27.322Z,8
2023-03-26T23:02:56.426Z,32
2023-03-26T23:05:26.637Z,31
2023-03-26T23:07:56.976Z,22
2023-03-26T23:10:27.985Z,12
2023-03-26T23:12:58.651Z,8
2023-03-26T23:15:29.012Z,8
2023-03-26T23:17:59.131Z,7
2023-03-26T23:20:30.285Z,8
2023-03-26T23:23:01.534Z,8
2023-03-26T23:25:32.002Z,8
2023-03-26T23:28:02.911Z,4
2023-03-26T23:30:33.833Z,4
2023-03-26T23:33:04.637Z,7
2023-03-26T23:35:35.945Z,8
2023-03-26T23:38:06.483Z,8
2023-03-26T23:40:36.772Z,8
2023-03-26T23:43:07.246Z,8
2023-03-26T23:45:37.829Z,8
2023-03-26T23:48:06.657Z,8
2023-03-26T23:50:37.237Z,5
2023-03-26T23:53:13.792Z,8
2023-03-26T23:55:44.514Z,8
2023-03-26T23:58:14.686Z,8
